Time;durP1;ratioP1;P1;durP2;ratioP2;P2;SDS_P1;SDS_P2;PMS_P1;PMS_P2;Temp;Humidity;BMP_temperature;BMP_pressure;BME280_temperature;BME280_humidity;BME280_pressure;Samples;Min_cycle;Max_cycle;Signal;HPM_P1;HPM_P2
2022/01/18 00:00:03;;;;;;;;;;;4.00;99.90;;;;;;5076566;28;19938;-41
2022/01/18 00:02:29;;;;;;;;;;;4.00;99.90;;;;;;5076399;28;20224;-43
2022/01/18 00:04:55;;;;;;;;;;;4.00;99.90;;;;;;5076348;28;19915;-42
2022/01/18 00:07:20;;;;;;;;;;;4.00;99.90;;;;;;5076076;28;19915;-43
2022/01/18 00:09:46;;;;;;;;;;;4.00;99.90;;;;;;5076292;28;19928;-43
2022/01/18 00:12:42;;;;;;;;;;;3.90;99.90;;;;;;5058096;28;19995;-43
2022/01/18 00:18:05;;;;;;;;;;;4.00;99.90;;;;;;5076207;28;20345;-41
2022/01/18 00:23:09;;;;;;;;;;;4.00;99.90;;;;;;5075795;28;20370;-42
2022/01/18 00:25:37;;;;;;;;;;;4.00;99.90;;;;;;5075730;28;19954;-42
2022/01/18 00:28:05;;;;;;;;;;;3.90;99.90;;;;;;5076241;28;20314;-42
2022/01/18 00:33:21;;;;;;;;;;;3.80;99.90;;;;;;5075603;28;19915;-42
2022/01/18 00:35:51;;;;;;;;;;;3.80;99.90;;;;;;5075856;28;19909;-43
2022/01/18 00:39:01;;;;;;;;;;;3.90;99.90;;;;;;5075747;28;19942;-43
2022/01/18 00:41:02;;;;;;;;;;;3.80;99.90;;;;;;5064832;28;20322;-42
2022/01/18 00:43:28;;;;;;;;;;;3.80;99.90;;;;;;5075318;28;19909;-42
2022/01/18 00:45:53;;;;;;;;;;;3.90;99.90;;;;;;5075208;28;19909;-42
2022/01/18 00:48:19;;;;;;;;;;;3.80;99.90;;;;;;5075541;28;20347;-43
2022/01/18 00:50:45;;;;;;;;;;;3.90;99.90;;;;;;5074725;28;19970;-43
2022/01/18 00:53:15;;;;;;;;;;;3.90;99.90;;;;;;5075562;28;19915;-42
2022/01/18 00:56:03;;;;;;;;;;;3.80;99.90;;;;;;5075526;28;19908;-44
2022/01/18 00:58:29;;;;;;;;;;;3.80;99.90;;;;;;5075469;28;19909;-43
2022/01/18 01:00:54;;;;;;;;;;;3.80;99.90;;;;;;5075042;28;19909;-43
2022/01/18 01:03:20;;;;;;;;;;;3.80;99.90;;;;;;5075402;28;19908;-43
2022/01/18 01:05:45;;;;;;;;;;;3.80;99.90;;;;;;5075211;28;19916;-42
2022/01/18 01:08:11;;;;;;;;;;;3.80;99.90;;;;;;5075269;28;19915;-42
2022/01/18 01:10:36;;;;;;;;;;;3.80;99.90;;;;;;5075067;28;19963;-42
2022/01/18 01:13:02;;;;;;;;;;;3.80;99.90;;;;;;5074733;28;19991;-41
2022/01/18 01:15:29;;;;;;;;;;;3.90;99.90;;;;;;5074771;28;20313;-41
2022/01/18 01:18:14;;;;;;;;;;;3.80;99.90;;;;;;5075082;28;19909;-42
2022/01/18 01:45:10;;;;;;;;;;;3.70;99.90;;;;;;5074356;28;19919;-41
2022/01/18 01:47:37;;;;;;;;;;;3.80;99.90;;;;;;5074096;28;20477;-43
2022/01/18 01:50:04;;;;;;;;;;;3.80;99.90;;;;;;5074183;28;19916;-43
2022/01/18 01:52:29;;;;;;;;;;;3.90;99.90;;;;;;5074103;28;20311;-42
2022/01/18 01:54:55;;;;;;;;;;;3.80;99.90;;;;;;5074375;28;19908;-42
2022/01/18 01:57:21;;;;;;;;;;;3.80;99.90;;;;;;5074625;28;20266;-42
2022/01/18 01:59:46;;;;;;;;;;;3.70;99.90;;;;;;5074039;28;19909;-44
2022/01/18 02:02:12;;;;;;;;;;;3.70;99.90;;;;;;5074221;28;19962;-42
2022/01/18 02:04:37;;;;;;;;;;;3.80;99.90;;;;;;5073980;28;19909;-42
2022/01/18 02:07:03;;;;;;;;;;;3.80;99.90;;;;;;5074270;28;19913;-44
2022/01/18 02:09:29;;;;;;;;;;;3.80;99.90;;;;;;5073986;28;19951;-44
2022/01/18 02:11:59;;;;;;;;;;;3.80;99.90;;;;;;5073756;28;19916;-41
2022/01/18 02:14:26;;;;;;;;;;;3.80;99.90;;;;;;5074246;28;19908;-43
2022/01/18 02:22:21;;;;;;;;;;;3.80;99.90;;;;;;5073682;28;19966;-42
2022/01/18 02:24:46;;;;;;;;;;;3.80;99.90;;;;;;5073802;28;19947;-42
2022/01/18 02:27:12;;;;;;;;;;;3.80;99.90;;;;;;5074013;28;19908;-43
2022/01/18 02:29:38;;;;;;;;;;;3.80;99.90;;;;;;5073913;28;19962;-45
2022/01/18 02:32:03;;;;;;;;;;;3.80;99.90;;;;;;5073977;28;20394;-42
2022/01/18 02:34:29;;;;;;;;;;;3.80;99.90;;;;;;5073942;28;20271;-41
2022/01/18 02:36:57;;;;;;;;;;;3.80;99.90;;;;;;5073660;28;19915;-43
2022/01/18 02:39:28;;;;;;;;;;;3.80;99.90;;;;;;5073959;28;19908;-43
2022/01/18 02:41:56;;;;;;;;;;;3.80;99.90;;;;;;5073889;28;19909;-42
2022/01/18 02:44:22;;;;;;;;;;;3.90;99.90;;;;;;5073938;28;20354;-45
2022/01/18 02:46:47;;;;;;;;;;;4.00;99.90;;;;;;5073861;28;19912;-42
2022/01/18 02:49:13;;;;;;;;;;;4.00;99.90;;;;;;5073640;28;20377;-43
2022/01/18 02:51:38;;;;;;;;;;;4.10;99.90;;;;;;5073780;28;19924;-43
2022/01/18 02:54:05;;;;;;;;;;;4.10;99.90;;;;;;5055909;28;20259;-41
2022/01/18 02:56:38;;;;;;;;;;;4.10;99.90;;;;;;5073699;28;19912;-41
2022/01/18 02:59:19;;;;;;;;;;;4.00;99.90;;;;;;5055477;28;19915;-42
2022/01/18 03:04:30;;;;;;;;;;;3.90;99.90;;;;;;5073484;28;19915;-42
2022/01/18 03:06:55;;;;;;;;;;;3.90;99.90;;;;;;5073619;28;19916;-42
2022/01/18 03:09:21;;;;;;;;;;;3.80;99.90;;;;;;5073643;28;19909;-42
2022/01/18 03:11:47;;;;;;;;;;;3.80;99.90;;;;;;5073192;28;20015;-42
2022/01/18 03:14:12;;;;;;;;;;;3.80;99.90;;;;;;5075249;28;19952;-42
2022/01/18 03:16:38;;;;;;;;;;;3.70;99.90;;;;;;5077147;28;19909;-42
2022/01/18 03:19:03;;;;;;;;;;;3.60;99.90;;;;;;5077099;28;19916;-43
2022/01/18 03:21:29;;;;;;;;;;;3.70;99.90;;;;;;5077286;28;19908;-43
2022/01/18 03:24:10;;;;;;;;;;;3.70;99.90;;;;;;5077311;28;19956;-42
2022/01/18 03:28:03;;;;;;;;;;;3.60;99.90;;;;;;5077185;28;19912;-42
2022/01/18 03:29:22;;;;;;;;;;;3.70;99.90;;;;;;5076754;28;19908;-44
2022/01/18 03:31:47;;;;;;;;;;;3.90;99.90;;;;;;5076897;28;19924;-42
2022/01/18 03:34:13;;;;;;;;;;;3.80;99.90;;;;;;5076633;28;20408;-41
2022/01/18 03:36:38;;;;;;;;;;;3.90;99.90;;;;;;5076963;28;19967;-43
2022/01/18 03:39:05;;;;;;;;;;;3.80;99.90;;;;;;5076661;28;19916;-42
2022/01/18 03:41:30;;;;;;;;;;;3.90;99.90;;;;;;5076925;28;19912;-43
2022/01/18 03:43:56;;;;;;;;;;;3.90;99.90;;;;;;5076820;28;19915;-42
2022/01/18 03:46:23;;;;;;;;;;;3.90;99.90;;;;;;5077094;28;19909;-42
2022/01/18 03:48:51;;;;;;;;;;;3.80;99.90;;;;;;5076925;28;19912;-42
2022/01/18 03:51:16;;;;;;;;;;;3.80;99.90;;;;;;5076208;28;20010;-43
2022/01/18 03:53:42;;;;;;;;;;;3.80;99.90;;;;;;5076346;28;19943;-42
2022/01/18 03:56:08;;;;;;;;;;;3.80;99.90;;;;;;5076279;28;19969;-43
2022/01/18 03:58:34;;;;;;;;;;;3.90;99.90;;;;;;5076577;28;20038;-42
2022/01/18 04:00:59;;;;;;;;;;;3.90;99.90;;;;;;5076452;28;19908;-42
2022/01/18 04:03:26;;;;;;;;;;;3.90;99.90;;;;;;5076406;28;20003;-43
2022/01/18 04:05:52;;;;;;;;;;;3.90;99.90;;;;;;5076023;28;19915;-42
2022/01/18 04:08:21;;;;;;;;;;;4.00;99.90;;;;;;5075968;28;20402;-42
2022/01/18 04:10:47;;;;;;;;;;;3.90;99.90;;;;;;5076189;28;19999;-42
2022/01/18 04:13:12;;;;;;;;;;;3.80;99.90;;;;;;5075875;28;19938;-44
2022/01/18 04:15:38;;;;;;;;;;;3.80;99.90;;;;;;5075871;28;19909;-42
2022/01/18 04:18:31;;;;;;;;;;;3.90;99.90;;;;;;5075893;28;19909;-42
2022/01/18 04:28:57;;;;;;;;;;;3.90;99.90;;;;;;5074479;28;19908;-41
2022/01/18 04:31:23;;;;;;;;;;;3.90;99.90;;;;;;5073168;28;19917;-43
2022/01/18 04:33:49;;;;;;;;;;;3.90;99.90;;;;;;5072974;28;19912;-44
2022/01/18 04:36:14;;;;;;;;;;;3.70;99.90;;;;;;5070652;28;19919;-45
2022/01/18 04:38:40;;;;;;;;;;;3.80;99.90;;;;;;5042813;28;19960;-41
2022/01/18 04:41:13;;;;;;;;;;;3.80;99.90;;;;;;5054635;28;19909;-43
2022/01/18 04:48:54;;;;;;;;;;;3.70;99.90;;;;;;5054576;28;19974;-42
2022/01/18 04:51:20;;;;;;;;;;;3.70;99.90;;;;;;5054453;28;19917;-43
2022/01/18 04:53:55;;;;;;;;;;;3.60;99.90;;;;;;5057417;28;19909;-42
2022/01/18 04:57:51;;;;;;;;;;;3.50;99.90;;;;;;5069516;28;19960;-42
2022/01/18 04:59:13;;;;;;;;;;;3.30;99.90;;;;;;5067960;28;19952;-42
2022/01/18 05:01:39;;;;;;;;;;;3.30;99.90;;;;;;5054494;28;19916;-42
2022/01/18 05:04:05;;;;;;;;;;;3.30;99.90;;;;;;5055003;28;19912;-42
2022/01/18 05:06:30;;;;;;;;;;;3.30;99.90;;;;;;5054206;28;19995;-41
2022/01/18 05:08:59;;;;;;;;;;;3.30;99.90;;;;;;5054622;28;19916;-40
2022/01/18 05:11:27;;;;;;;;;;;3.30;99.90;;;;;;5055750;28;19925;-44
2022/01/18 05:16:53;;;;;;;;;;;3.50;99.90;;;;;;5054238;28;19932;-42
2022/01/18 05:19:25;;;;;;;;;;;3.50;99.90;;;;;;5055273;28;19917;-43
2022/01/18 05:24:19;;;;;;;;;;;3.50;99.90;;;;;;5054347;28;19996;-41
2022/01/18 05:26:45;;;;;;;;;;;3.40;99.90;;;;;;5062949;28;19986;-45
2022/01/18 05:29:10;;;;;;;;;;;3.40;99.90;;;;;;5073472;28;19912;-43
2022/01/18 05:31:36;;;;;;;;;;;3.40;99.90;;;;;;5072182;28;19925;-43
2022/01/18 05:34:01;;;;;;;;;;;3.30;99.90;;;;;;5070964;28;19917;-46
2022/01/18 05:36:28;;;;;;;;;;;3.30;99.90;;;;;;5054117;28;20326;-41
2022/01/18 05:38:53;;;;;;;;;;;3.20;99.90;;;;;;5063423;28;19912;-42
2022/01/18 05:41:19;;;;;;;;;;;3.20;99.90;;;;;;5074033;28;20381;-48
2022/01/18 05:43:45;;;;;;;;;;;3.10;99.90;;;;;;5074115;28;20371;-44
2022/01/18 05:46:10;;;;;;;;;;;3.00;99.90;;;;;;5073217;28;19913;-44
2022/01/18 05:48:36;;;;;;;;;;;3.00;99.90;;;;;;5074138;28;19909;-44
2022/01/18 05:51:02;;;;;;;;;;;3.00;99.90;;;;;;5072894;28;19921;-42
2022/01/18 05:53:27;;;;;;;;;;;3.10;99.90;;;;;;5073418;28;19916;-42
2022/01/18 05:55:53;;;;;;;;;;;3.10;99.90;;;;;;5073859;28;19909;-42
2022/01/18 05:58:19;;;;;;;;;;;3.10;99.90;;;;;;5072873;28;19958;-42
2022/01/18 06:00:50;;;;;;;;;;;3.20;99.90;;;;;;5073754;28;20003;-41
2022/01/18 06:03:24;;;;;;;;;;;3.10;99.90;;;;;;5073126;28;20313;-42
2022/01/18 06:08:34;;;;;;;;;;;3.10;99.90;;;;;;5073119;28;19966;-41
2022/01/18 06:10:59;;;;;;;;;;;3.00;99.90;;;;;;5073747;28;19921;-41
2022/01/18 06:13:25;;;;;;;;;;;3.00;99.90;;;;;;5072647;28;19927;-42
2022/01/18 06:15:50;;;;;;;;;;;2.90;99.90;;;;;;5073125;28;19958;-43
2022/01/18 06:18:17;;;;;;;;;;;2.90;99.90;;;;;;5071368;28;19938;-44
2022/01/18 06:20:43;;;;;;;;;;;2.80;99.90;;;;;;5072811;28;20394;-41
2022/01/18 06:23:09;;;;;;;;;;;2.80;99.90;;;;;;5055159;28;19921;-43
2022/01/18 06:25:35;;;;;;;;;;;2.90;99.90;;;;;;5073362;28;19908;-42
2022/01/18 06:28:01;;;;;;;;;;;2.90;99.90;;;;;;5055209;28;19908;-42
2022/01/18 06:30:26;;;;;;;;;;;2.90;99.90;;;;;;5073426;28;19974;-43
2022/01/18 06:32:52;;;;;;;;;;;2.80;99.90;;;;;;5073543;28;19915;-43
2022/01/18 06:35:17;;;;;;;;;;;2.80;99.90;;;;;;5073195;28;19915;-43
2022/01/18 06:37:43;;;;;;;;;;;2.90;99.90;;;;;;5072938;28;19908;-42
2022/01/18 06:40:09;;;;;;;;;;;3.00;99.90;;;;;;5073357;28;19909;-43
2022/01/18 06:42:35;;;;;;;;;;;3.20;99.90;;;;;;5072963;28;20351;-42
2022/01/18 06:45:00;;;;;;;;;;;3.20;99.90;;;;;;5072679;28;19954;-42
2022/01/18 06:47:26;;;;;;;;;;;3.30;99.90;;;;;;5073293;28;20347;-41
2022/01/18 06:49:52;;;;;;;;;;;3.20;99.90;;;;;;5075624;28;20270;-43
2022/01/18 06:52:17;;;;;;;;;;;3.30;99.90;;;;;;5077053;28;19909;-43
2022/01/18 06:54:43;;;;;;;;;;;3.30;99.90;;;;;;5077453;28;20420;-43
2022/01/18 06:57:08;;;;;;;;;;;3.30;99.90;;;;;;5077440;28;20339;-42
2022/01/18 06:59:34;;;;;;;;;;;3.20;99.90;;;;;;5077247;28;19908;-42
2022/01/18 07:02:00;;;;;;;;;;;3.20;99.90;;;;;;5077144;28;19909;-42
2022/01/18 07:04:26;;;;;;;;;;;3.30;99.90;;;;;;5076977;28;19915;-42
2022/01/18 07:06:51;;;;;;;;;;;3.40;99.90;;;;;;5077007;28;19909;-40
2022/01/18 07:09:22;;;;;;;;;;;3.50;99.90;;;;;;5077350;28;19912;-42
2022/01/18 07:11:48;;;;;;;;;;;3.40;99.90;;;;;;5076644;28;20067;-42
2022/01/18 07:14:14;;;;;;;;;;;3.40;99.90;;;;;;5076677;28;20359;-42
2022/01/18 07:16:39;;;;;;;;;;;3.40;99.90;;;;;;5076250;28;19927;-42
2022/01/18 07:19:05;;;;;;;;;;;3.50;99.90;;;;;;5076375;28;19908;-43
2022/01/18 07:21:30;;;;;;;;;;;3.50;99.90;;;;;;5076555;28;19933;-43
2022/01/18 07:24:04;;;;;;;;;;;3.50;99.90;;;;;;5076763;28;19935;-42
2022/01/18 07:26:30;;;;;;;;;;;3.50;99.90;;;;;;5076188;28;20370;-43
2022/01/18 07:28:55;;;;;;;;;;;3.50;99.90;;;;;;5058155;28;19908;-42
2022/01/18 07:31:20;;;;;;;;;;;3.50;99.90;;;;;;5076107;28;19917;-42
2022/01/18 07:33:46;;;;;;;;;;;3.60;99.90;;;;;;5075799;28;19984;-43
2022/01/18 07:36:11;;;;;;;;;;;3.60;99.90;;;;;;5058418;28;19908;-42
2022/01/18 07:38:37;;;;;;;;;;;3.50;99.90;;;;;;5076104;28;19948;-43
2022/01/18 07:41:03;;;;;;;;;;;3.40;99.90;;;;;;5075807;28;19913;-42
2022/01/18 07:43:28;;;;;;;;;;;3.40;99.90;;;;;;5075371;28;20263;-42
2022/01/18 07:45:54;;;;;;;;;;;3.50;99.90;;;;;;5075926;28;19908;-43
2022/01/18 07:48:22;;;;;;;;;;;3.50;99.90;;;;;;5075875;28;19924;-43
2022/01/18 07:50:48;;;;;;;;;;;3.60;99.90;;;;;;5057758;28;20283;-41
2022/01/18 07:53:14;;;;;;;;;;;3.80;99.90;;;;;;5057764;28;19909;-43
2022/01/18 07:55:39;;;;;;;;;;;3.80;99.90;;;;;;5075753;28;20328;-42
2022/01/18 07:58:05;;;;;;;;;;;3.80;99.90;;;;;;5075977;28;20355;-42
2022/01/18 08:00:31;;;;;;;;;;;3.70;99.90;;;;;;5075317;28;19958;-42
2022/01/18 08:02:56;;;;;;;;;;;3.70;99.90;;;;;;5075488;28;19908;-42
2022/01/18 08:05:22;;;;;;;;;;;3.80;99.90;;;;;;5075909;28;19920;-42
2022/01/18 08:07:47;;;;;;;;;;;3.90;99.90;;;;;;5075665;28;20510;-42
2022/01/18 08:10:13;;;;;;;;;;;4.00;99.90;;;;;;5075382;28;20317;-41
2022/01/18 08:12:39;;;;;;;;;;;4.00;99.90;;;;;;5076236;28;20239;-42
2022/01/18 08:15:14;;;;;;;;;;;4.00;99.90;;;;;;5075271;28;19916;-43
2022/01/18 08:17:40;;;;;;;;;;;4.00;99.90;;;;;;5075597;28;20024;-43
2022/01/18 08:20:06;;;;;;;;;;;4.10;99.90;;;;;;5075481;28;19909;-42
2022/01/18 08:22:32;;;;;;;;;;;4.10;99.90;;;;;;5075433;28;19908;-41
2022/01/18 08:24:57;;;;;;;;;;;4.40;99.90;;;;;;5075380;28;19909;-42
2022/01/18 08:27:23;;;;;;;;;;;4.60;99.90;;;;;;5075337;28;19908;-43
2022/01/18 08:29:48;;;;;;;;;;;4.60;99.90;;;;;;5075109;28;20046;-42
2022/01/18 08:32:14;;;;;;;;;;;4.70;99.90;;;;;;5075619;28;19916;-43
2022/01/18 08:34:40;;;;;;;;;;;4.60;99.90;;;;;;5075059;28;19908;-43
2022/01/18 08:37:05;;;;;;;;;;;4.80;99.90;;;;;;5075163;28;19908;-42
2022/01/18 08:39:31;;;;;;;;;;;4.90;99.90;;;;;;5074963;28;19948;-43
2022/01/18 08:41:56;;;;;;;;;;;4.90;99.90;;;;;;5074687;28;19999;-42
2022/01/18 08:44:22;;;;;;;;;;;5.00;99.90;;;;;;5074989;28;19909;-42
2022/01/18 08:46:48;;;;;;;;;;;5.00;99.90;;;;;;5074661;28;20239;-42
2022/01/18 08:49:14;;;;;;;;;;;5.10;99.90;;;;;;5075032;28;19908;-44
2022/01/18 08:51:39;;;;;;;;;;;5.00;99.90;;;;;;5056927;28;19926;-44
2022/01/18 08:54:05;;;;;;;;;;;5.10;99.90;;;;;;5074702;28;19909;-44
2022/01/18 08:56:30;;;;;;;;;;;5.20;99.90;;;;;;5074520;28;19951;-42
2022/01/18 08:58:56;;;;;;;;;;;5.20;99.90;;;;;;5074553;28;19973;-41
2022/01/18 09:01:22;;;;;;;;;;;5.40;99.90;;;;;;5074910;28;19999;-42
2022/01/18 09:03:48;;;;;;;;;;;5.40;99.90;;;;;;5075193;28;19909;-41
2022/01/18 09:06:16;;;;;;;;;;;5.50;99.90;;;;;;5074627;28;19908;-42
2022/01/18 09:08:41;;;;;;;;;;;5.40;99.90;;;;;;5074850;28;19959;-44
2022/01/18 09:11:13;;;;;;;;;;;5.40;99.90;;;;;;5074085;28;19955;-42
2022/01/18 09:13:39;;;;;;;;;;;5.50;99.90;;;;;;5074317;28;19962;-42
2022/01/18 09:16:06;;;;;;;;;;;5.50;99.90;;;;;;5074396;28;19909;-45
2022/01/18 09:18:32;;;;;;;;;;;5.70;99.90;;;;;;5074121;28;20408;-41
2022/01/18 09:20:58;;;;;;;;;;;5.70;99.90;;;;;;5074597;28;19919;-43
2022/01/18 09:23:23;;;;;;;;;;;5.90;99.90;;;;;;5074468;28;20275;-45
2022/01/18 09:25:49;;;;;;;;;;;5.90;99.90;;;;;;5073975;28;20242;-42
2022/01/18 09:28:14;;;;;;;;;;;5.90;99.90;;;;;;5073834;28;19915;-45
2022/01/18 09:30:40;;;;;;;;;;;5.80;99.90;;;;;;5074097;28;19924;-43
2022/01/18 09:33:06;;;;;;;;;;;6.00;99.90;;;;;;5074069;28;19994;-44
2022/01/18 09:35:32;;;;;;;;;;;6.00;99.90;;;;;;5074193;28;20248;-42
2022/01/18 09:37:58;;;;;;;;;;;5.80;99.90;;;;;;5073754;28;19909;-45
2022/01/18 09:40:24;;;;;;;;;;;5.90;99.90;;;;;;5056074;28;20007;-45
2022/01/18 09:42:56;;;;;;;;;;;5.90;99.90;;;;;;5073849;28;19999;-43
2022/01/18 09:45:22;;;;;;;;;;;5.80;99.90;;;;;;5073517;28;19938;-42
2022/01/18 09:47:49;;;;;;;;;;;5.80;99.90;;;;;;5073884;28;20263;-41
2022/01/18 09:50:17;;;;;;;;;;;5.70;99.90;;;;;;5073548;28;19976;-42
2022/01/18 09:52:42;;;;;;;;;;;5.50;99.90;;;;;;5073203;28;20020;-44
2022/01/18 09:55:09;;;;;;;;;;;5.20;99.90;;;;;;5073669;28;20433;-41
2022/01/18 09:57:35;;;;;;;;;;;5.40;99.90;;;;;;5073608;28;19947;-43
2022/01/18 10:00:01;;;;;;;;;;;5.40;99.90;;;;;;5073448;28;19909;-44
2022/01/18 10:02:27;;;;;;;;;;;5.40;99.90;;;;;;5073713;28;19920;-41
2022/01/18 10:04:54;;;;;;;;;;;5.40;99.90;;;;;;5073200;28;20317;-42
2022/01/18 10:07:33;;;;;;;;;;;5.30;99.90;;;;;;5073810;28;19915;-42
2022/01/18 10:09:59;;;;;;;;;;;5.40;99.90;;;;;;5073636;28;20028;-45
2022/01/18 10:12:24;;;;;;;;;;;5.50;99.90;;;;;;5073905;28;19909;-42
2022/01/18 10:14:51;;;;;;;;;;;5.50;99.90;;;;;;5073422;28;19914;-43
2022/01/18 10:17:27;;;;;;;;;;;5.50;99.90;;;;;;5073308;28;19916;-43
2022/01/18 10:19:53;;;;;;;;;;;5.40;99.90;;;;;;5073721;28;19948;-44
2022/01/18 10:22:23;;;;;;;;;;;5.30;99.90;;;;;;5073403;28;19915;-43
2022/01/18 10:24:49;;;;;;;;;;;5.20;99.90;;;;;;5073495;28;19909;-44
2022/01/18 10:27:15;;;;;;;;;;;5.30;99.90;;;;;;5073092;28;19909;-41
2022/01/18 10:29:42;;;;;;;;;;;5.40;99.90;;;;;;5073375;28;19947;-42
2022/01/18 10:32:28;;;;;;;;;;;5.50;99.90;;;;;;5073097;28;19974;-42
2022/01/18 10:37:19;;;;;;;;;;;5.40;99.90;;;;;;5073364;28;19965;-42
2022/01/18 10:39:48;;;;;;;;;;;5.30;99.90;;;;;;5072927;28;19908;-42
2022/01/18 10:42:26;;;;;;;;;;;5.00;99.90;;;;;;5072903;28;19947;-42
2022/01/18 10:45:03;;;;;;;;;;;5.00;99.90;;;;;;5072983;28;20050;-44
2022/01/18 10:47:29;;;;;;;;;;;5.10;99.90;;;;;;5073186;28;19908;-42
2022/01/18 10:49:56;;;;;;;;;;;4.80;99.90;;;;;;5073048;28;20315;-43
2022/01/18 10:52:24;;;;;;;;;;;4.60;99.90;;;;;;5073001;28;19915;-42
2022/01/18 10:54:56;;;;;;;;;;;4.40;99.90;;;;;;5072747;28;19908;-42
2022/01/18 10:57:36;;;;;;;;;;;4.50;99.90;;;;;;5072719;28;19908;-42
2022/01/18 11:00:10;;;;;;;;;;;4.70;99.90;;;;;;5072834;28;19995;-44
2022/01/18 11:02:40;;;;;;;;;;;4.90;99.90;;;;;;5072461;28;20473;-42
2022/01/18 11:05:11;;;;;;;;;;;5.00;99.90;;;;;;5072855;28;19991;-46
2022/01/18 11:07:37;;;;;;;;;;;5.30;99.90;;;;;;5072893;28;19931;-42
2022/01/18 11:10:05;;;;;;;;;;;5.70;99.90;;;;;;5072792;28;19915;-42
2022/01/18 11:12:41;;;;;;;;;;;5.40;99.90;;;;;;5072676;28;19922;-42
2022/01/18 11:15:08;;;;;;;;;;;5.80;99.90;;;;;;5072622;28;19912;-43
2022/01/18 11:17:39;;;;;;;;;;;5.60;99.90;;;;;;5072912;28;20349;-45
2022/01/18 11:20:06;;;;;;;;;;;5.50;99.90;;;;;;5073163;28;19909;-42
2022/01/18 11:22:31;;;;;;;;;;;5.20;99.90;;;;;;5054405;28;19954;-43
2022/01/18 11:24:58;;;;;;;;;;;5.10;99.90;;;;;;5072357;28;19913;-43
2022/01/18 11:27:24;;;;;;;;;;;4.80;99.90;;;;;;5054547;28;19908;-44
2022/01/18 11:29:50;;;;;;;;;;;5.30;99.90;;;;;;5072412;28;20041;-44
2022/01/18 11:32:16;;;;;;;;;;;5.50;99.90;;;;;;5072643;28;19950;-42
2022/01/18 11:35:00;;;;;;;;;;;5.50;99.90;;;;;;5073385;28;20361;-42
2022/01/18 11:37:32;;;;;;;;;;;5.60;99.90;;;;;;5075966;28;19915;-42
2022/01/18 11:39:58;;;;;;;;;;;5.50;99.90;;;;;;5075979;28;20324;-43
2022/01/18 11:42:36;;;;;;;;;;;5.40;99.90;;;;;;5076298;28;19909;-42
2022/01/18 11:45:21;;;;;;;;;;;5.30;99.90;;;;;;5076388;28;19908;-43
2022/01/18 11:47:57;;;;;;;;;;;5.00;99.90;;;;;;5075878;28;20017;-44
2022/01/18 11:50:26;;;;;;;;;;;5.40;99.90;;;;;;5075575;28;19961;-44
2022/01/18 11:53:15;;;;;;;;;;;5.50;99.90;;;;;;5076150;28;19954;-43
2022/01/18 11:55:43;;;;;;;;;;;5.40;99.90;;;;;;5076276;28;20220;-43
2022/01/18 11:58:12;;;;;;;;;;;5.50;99.90;;;;;;5075747;28;19997;-43
2022/01/18 12:00:55;;;;;;;;;;;5.60;99.90;;;;;;5057866;28;19960;-44
2022/01/18 12:03:22;;;;;;;;;;;5.20;99.90;;;;;;5075882;28;19999;-43
2022/01/18 12:05:49;;;;;;;;;;;5.00;99.90;;;;;;5075540;28;19950;-44
2022/01/18 12:08:31;;;;;;;;;;;5.20;99.90;;;;;;5075342;28;19908;-43
2022/01/18 12:10:57;;;;;;;;;;;5.30;99.90;;;;;;5058038;28;20377;-43
2022/01/18 12:13:24;;;;;;;;;;;5.60;99.90;;;;;;5075278;28;19908;-44
2022/01/18 12:15:50;;;;;;;;;;;5.60;99.90;;;;;;5075257;28;19915;-43
2022/01/18 12:18:17;;;;;;;;;;;5.80;99.90;;;;;;5075515;28;19908;-42
2022/01/18 12:20:44;;;;;;;;;;;5.90;99.90;;;;;;5075398;28;19919;-43
2022/01/18 12:23:09;;;;;;;;;;;5.40;99.90;;;;;;5075091;28;19983;-42
2022/01/18 12:25:54;;;;;;;;;;;5.50;99.90;;;;;;5074956;28;19948;-42
2022/01/18 12:28:35;;;;;;;;;;;5.90;99.90;;;;;;5057223;28;19909;-43
2022/01/18 12:31:23;;;;;;;;;;;5.80;99.90;;;;;;5074481;28;20192;-44
2022/01/18 12:33:50;;;;;;;;;;;5.60;99.90;;;;;;5074980;28;20003;-42
2022/01/18 12:36:29;;;;;;;;;;;5.80;99.90;;;;;;5075095;28;19948;-45
2022/01/18 12:39:02;;;;;;;;;;;5.80;99.90;;;;;;5074913;28;20285;-43
2022/01/18 12:41:47;;;;;;;;;;;5.90;99.90;;;;;;5075022;28;19912;-42
2022/01/18 12:44:21;;;;;;;;;;;6.00;99.90;;;;;;5075115;28;19909;-44
2022/01/18 12:46:53;;;;;;;;;;;5.90;99.90;;;;;;5073838;28;19932;-42
2022/01/18 12:49:19;;;;;;;;;;;5.40;99.90;;;;;;5074865;28;19908;-45
2022/01/18 12:51:44;;;;;;;;;;;5.20;99.90;;;;;;5075376;28;20355;-42
2022/01/18 12:54:10;;;;;;;;;;;5.20;99.90;;;;;;5074954;28;19954;-43
2022/01/18 12:56:35;;;;;;;;;;;5.20;99.90;;;;;;5075304;28;20309;-42
2022/01/18 12:59:04;;;;;;;;;;;5.10;99.90;;;;;;5075331;28;20305;-44
2022/01/18 13:01:31;;;;;;;;;;;5.30;99.90;;;;;;5074305;28;19915;-43
2022/01/18 13:03:57;;;;;;;;;;;5.60;99.90;;;;;;5074768;28;19986;-43
2022/01/18 13:06:24;;;;;;;;;;;5.60;99.90;;;;;;5074911;28;19912;-42
2022/01/18 13:08:50;;;;;;;;;;;5.50;99.90;;;;;;5056483;28;19908;-42
2022/01/18 13:11:17;;;;;;;;;;;5.70;99.90;;;;;;5074187;28;19924;-44
2022/01/18 13:13:49;;;;;;;;;;;5.70;99.90;;;;;;5074639;28;19908;-45
2022/01/18 13:26:48;;;;;;;;;;;5.90;99.90;;;;;;5074301;28;19912;-42
2022/01/18 13:29:19;;;;;;;;;;;5.80;99.90;;;;;;5074386;28;19940;-44
2022/01/18 13:31:47;;;;;;;;;;;5.70;99.90;;;;;;5074110;28;19916;-42
2022/01/18 13:34:15;;;;;;;;;;;5.70;99.90;;;;;;5074053;28;20274;-41
2022/01/18 13:36:51;;;;;;;;;;;5.90;99.90;;;;;;5074249;28;19908;-43
2022/01/18 13:39:20;;;;;;;;;;;5.90;99.90;;;;;;5073899;28;19915;-43
2022/01/18 13:41:47;;;;;;;;;;;6.00;99.90;;;;;;5073949;28;19961;-44
2022/01/18 13:44:12;;;;;;;;;;;5.90;99.90;;;;;;5073684;28;19912;-43
2022/01/18 13:46:38;;;;;;;;;;;5.90;99.90;;;;;;5073936;28;20425;-42
2022/01/18 13:49:07;;;;;;;;;;;5.80;99.90;;;;;;5074060;28;19915;-41
2022/01/18 13:51:33;;;;;;;;;;;5.80;99.90;;;;;;5073646;28;19985;-45
2022/01/18 13:53:59;;;;;;;;;;;5.90;99.90;;;;;;5073805;28;20313;-44
2022/01/18 13:56:26;;;;;;;;;;;6.00;99.90;;;;;;5073288;28;19916;-42
2022/01/18 13:59:02;;;;;;;;;;;5.60;99.90;;;;;;5073468;28;19931;-42
2022/01/18 14:01:32;;;;;;;;;;;5.70;99.90;;;;;;5073618;28;20267;-44
2022/01/18 14:04:13;;;;;;;;;;;5.60;99.90;;;;;;5073647;28;19912;-43
2022/01/18 14:06:39;;;;;;;;;;;5.40;99.90;;;;;;5073549;28;19995;-45
2022/01/18 14:09:05;;;;;;;;;;;5.60;99.90;;;;;;5073254;28;19908;-44
2022/01/18 14:11:36;;;;;;;;;;;5.60;99.90;;;;;;5072582;28;20438;-43
2022/01/18 14:14:15;;;;;;;;;;;5.50;99.90;;;;;;5071900;28;20255;-43
2022/01/18 14:16:50;;;;;;;;;;;5.50;99.90;;;;;;5069703;28;19991;-42
2022/01/18 14:19:38;;;;;;;;;;;5.30;99.90;;;;;;5072242;28;19913;-44
2022/01/18 14:22:03;;;;;;;;;;;5.20;99.90;;;;;;5072795;28;20034;-42
2022/01/18 14:24:38;;;;;;;;;;;5.30;99.90;;;;;;5072248;28;19955;-44
2022/01/18 14:27:06;;;;;;;;;;;5.30;99.90;;;;;;5072668;28;19973;-43
2022/01/18 14:29:41;;;;;;;;;;;5.10;99.90;;;;;;5072802;28;20003;-43
2022/01/18 14:32:06;;;;;;;;;;;4.90;99.90;;;;;;5072389;28;19920;-42
2022/01/18 14:34:39;;;;;;;;;;;4.90;99.90;;;;;;5064049;28;20324;-43
2022/01/18 14:37:05;;;;;;;;;;;4.80;99.90;;;;;;5072211;28;20267;-42
2022/01/18 14:39:31;;;;;;;;;;;4.80;99.90;;;;;;5072828;28;19913;-43
2022/01/18 14:41:56;;;;;;;;;;;5.00;99.90;;;;;;5073026;28;20278;-42
2022/01/18 14:44:35;;;;;;;;;;;4.80;99.90;;;;;;5072584;28;20020;-43
2022/01/18 14:47:44;;;;;;;;;;;4.70;99.90;;;;;;5071987;28;19912;-43
2022/01/18 14:49:57;;;;;;;;;;;4.60;99.90;;;;;;5064782;28;19909;-44
2022/01/18 14:52:23;;;;;;;;;;;4.60;99.90;;;;;;5072515;28;19920;-43
2022/01/18 14:54:49;;;;;;;;;;;4.50;99.90;;;;;;5072180;28;19912;-42
2022/01/18 14:57:15;;;;;;;;;;;4.60;99.90;;;;;;5073297;28;19908;-46
2022/01/18 14:59:40;;;;;;;;;;;4.70;99.90;;;;;;5072066;28;20256;-46
2022/01/18 15:02:06;;;;;;;;;;;4.60;99.90;;;;;;5072090;28;20227;-43
2022/01/18 15:04:31;;;;;;;;;;;4.50;99.90;;;;;;5072405;28;19919;-44
2022/01/18 15:06:57;;;;;;;;;;;4.50;99.90;;;;;;5071292;28;19975;-43
2022/01/18 15:09:28;;;;;;;;;;;4.60;99.90;;;;;;5060447;28;19952;-44
2022/01/18 15:11:57;;;;;;;;;;;4.70;99.90;;;;;;5075963;28;19923;-45
2022/01/18 15:14:22;;;;;;;;;;;4.80;99.90;;;;;;5069910;28;20326;-44
2022/01/18 15:16:48;;;;;;;;;;;4.90;99.90;;;;;;5056460;28;19920;-45
2022/01/18 15:19:13;;;;;;;;;;;4.90;99.90;;;;;;5056430;28;19909;-43
2022/01/18 15:21:39;;;;;;;;;;;4.90;99.90;;;;;;5057040;28;19915;-43
2022/01/18 15:24:05;;;;;;;;;;;4.90;99.90;;;;;;5061674;28;19920;-45
2022/01/18 15:26:30;;;;;;;;;;;4.90;99.90;;;;;;5076126;28;19913;-44
2022/01/18 15:28:56;;;;;;;;;;;4.60;99.90;;;;;;5075939;28;20374;-42
2022/01/18 15:31:21;;;;;;;;;;;4.40;99.90;;;;;;5061240;28;19920;-42
2022/01/18 15:33:47;;;;;;;;;;;4.70;99.90;;;;;;5055743;28;19920;-44
2022/01/18 15:36:12;;;;;;;;;;;4.70;99.90;;;;;;5055850;28;20267;-47
2022/01/18 15:38:38;;;;;;;;;;;4.80;99.90;;;;;;5055653;28;19992;-42
2022/01/18 15:41:04;;;;;;;;;;;4.80;99.90;;;;;;5074227;28;21671;-43
2022/01/18 15:43:29;;;;;;;;;;;4.90;99.90;;;;;;5070106;28;19951;-44
2022/01/18 15:45:55;;;;;;;;;;;4.80;99.90;;;;;;5071948;28;20369;-43
2022/01/18 15:48:20;;;;;;;;;;;4.90;99.90;;;;;;5066372;28;19932;-43
2022/01/18 15:50:47;;;;;;;;;;;4.90;99.90;;;;;;5066792;28;19928;-45